sensor_id;sensor_type;location;lat;lon;timestamp;temperature;humidity
71304;DHT22;59091;47.446;19.148;2023-02-28T00:00:43;2.96;49.34
71304;DHT22;59091;47.446;19.148;2023-02-28T00:03:09;3.06;49.24
71304;DHT22;59091;47.446;19.148;2023-02-28T00:05:35;3.16;49.33
71304;DHT22;59091;47.446;19.148;2023-02-28T00:08:00;3.12;49.07
71304;DHT22;59091;47.446;19.148;2023-02-28T00:10:28;2.93;49.32
71304;DHT22;59091;47.446;19.148;2023-02-28T00:12:56;3.03;49.26
71304;DHT22;59091;47.446;19.148;2023-02-28T00:15:24;2.96;49.67
71304;DHT22;59091;47.446;19.148;2023-02-28T00:17:51;3.06;49.63
71304;DHT22;59091;47.446;19.148;2023-02-28T00:20:17;3.10;49.61
71304;DHT22;59091;47.446;19.148;2023-02-28T00:22:44;2.95;49.76
71304;DHT22;59091;47.446;19.148;2023-02-28T00:25:11;2.95;49.83
71304;DHT22;59091;47.446;19.148;2023-02-28T00:27:38;2.84;50.03
71304;DHT22;59091;47.446;19.148;2023-02-28T00:30:06;2.89;49.99
71304;DHT22;59091;47.446;19.148;2023-02-28T00:32:32;2.98;50.02
71304;DHT22;59091;47.446;19.148;2023-02-28T00:34:59;3.09;49.85
71304;DHT22;59091;47.446;19.148;2023-02-28T00:37:25;3.15;49.67
71304;DHT22;59091;47.446;19.148;2023-02-28T00:39:50;3.19;49.64
71304;DHT22;59091;47.446;19.148;2023-02-28T00:42:15;3.18;49.64
71304;DHT22;59091;47.446;19.148;2023-02-28T00:44:41;3.23;49.58
71304;DHT22;59091;47.446;19.148;2023-02-28T00:47:06;3.19;49.74
71304;DHT22;59091;47.446;19.148;2023-02-28T00:49:32;3.31;49.68
71304;DHT22;59091;47.446;19.148;2023-02-28T00:51:58;3.29;49.65
71304;DHT22;59091;47.446;19.148;2023-02-28T00:54:23;3.27;49.63
71304;DHT22;59091;47.446;19.148;2023-02-28T00:56:49;3.30;49.88
71304;DHT22;59091;47.446;19.148;2023-02-28T00:59:16;3.24;49.72
71304;DHT22;59091;47.446;19.148;2023-02-28T01:01:43;3.31;49.66
71304;DHT22;59091;47.446;19.148;2023-02-28T01:04:08;3.34;49.77
71304;DHT22;59091;47.446;19.148;2023-02-28T01:06:34;3.40;49.51
71304;DHT22;59091;47.446;19.148;2023-02-28T01:09:01;3.43;49.50
71304;DHT22;59091;47.446;19.148;2023-02-28T01:11:26;3.40;49.37
71304;DHT22;59091;47.446;19.148;2023-02-28T01:13:52;3.43;49.54
71304;DHT22;59091;47.446;19.148;2023-02-28T01:16:17;3.47;49.61
71304;DHT22;59091;47.446;19.148;2023-02-28T01:18:43;3.49;49.61
71304;DHT22;59091;47.446;19.148;2023-02-28T01:21:11;3.56;49.37
71304;DHT22;59091;47.446;19.148;2023-02-28T01:23:38;3.59;49.34
71304;DHT22;59091;47.446;19.148;2023-02-28T01:26:09;3.49;49.41
71304;DHT22;59091;47.446;19.148;2023-02-28T01:28:36;3.44;49.53
71304;DHT22;59091;47.446;19.148;2023-02-28T01:31:01;3.41;49.69
71304;DHT22;59091;47.446;19.148;2023-02-28T01:33:28;3.44;49.41
71304;DHT22;59091;47.446;19.148;2023-02-28T01:36:05;3.43;49.18
71304;DHT22;59091;47.446;19.148;2023-02-28T01:38:31;3.41;49.22
71304;DHT22;59091;47.446;19.148;2023-02-28T01:40:57;3.44;49.16
71304;DHT22;59091;47.446;19.148;2023-02-28T01:43:31;3.39;48.93
71304;DHT22;59091;47.446;19.148;2023-02-28T01:45:58;3.33;49.34
71304;DHT22;59091;47.446;19.148;2023-02-28T01:48:38;3.26;49.22
71304;DHT22;59091;47.446;19.148;2023-02-28T01:51:17;3.30;49.39
71304;DHT22;59091;47.446;19.148;2023-02-28T01:53:53;3.31;49.74
71304;DHT22;59091;47.446;19.148;2023-02-28T01:56:24;3.36;49.72
71304;DHT22;59091;47.446;19.148;2023-02-28T01:58:53;3.39;49.79
71304;DHT22;59091;47.446;19.148;2023-02-28T02:01:21;3.24;49.87
71304;DHT22;59091;47.446;19.148;2023-02-28T02:03:53;3.27;49.95
71304;DHT22;59091;47.446;19.148;2023-02-28T02:06:29;3.31;49.99
71304;DHT22;59091;47.446;19.148;2023-02-28T02:08:55;3.34;50.18
71304;DHT22;59091;47.446;19.148;2023-02-28T02:11:21;3.29;50.26
71304;DHT22;59091;47.446;19.148;2023-02-28T02:25:19;3.10;50.25
71304;DHT22;59091;47.446;19.148;2023-02-28T02:32:39;2.89;50.52
71304;DHT22;59091;47.446;19.148;2023-02-28T02:34:43;2.96;50.61
71304;DHT22;59091;47.446;19.148;2023-02-28T02:40:10;3.13;50.23
71304;DHT22;59091;47.446;19.148;2023-02-28T02:45:23;3.15;50.10
71304;DHT22;59091;47.446;19.148;2023-02-28T02:47:51;3.26;50.19
71304;DHT22;59091;47.446;19.148;2023-02-28T02:50:26;3.37;50.14
71304;DHT22;59091;47.446;19.148;2023-02-28T02:52:57;3.41;49.96
71304;DHT22;59091;47.446;19.148;2023-02-28T02:55:24;3.44;49.76
71304;DHT22;59091;47.446;19.148;2023-02-28T02:57:57;3.50;49.90
71304;DHT22;59091;47.446;19.148;2023-02-28T03:00:30;3.54;49.50
71304;DHT22;59091;47.446;19.148;2023-02-28T03:02:57;3.54;49.46
71304;DHT22;59091;47.446;19.148;2023-02-28T03:05:33;3.59;49.29
71304;DHT22;59091;47.446;19.148;2023-02-28T03:08:03;3.59;49.33
71304;DHT22;59091;47.446;19.148;2023-02-28T03:10:40;3.54;49.36
71304;DHT22;59091;47.446;19.148;2023-02-28T03:16:05;3.60;49.40
71304;DHT22;59091;47.446;19.148;2023-02-28T03:18:47;3.57;49.51
71304;DHT22;59091;47.446;19.148;2023-02-28T03:21:22;3.61;49.89
71304;DHT22;59091;47.446;19.148;2023-02-28T03:24:06;3.61;49.62
71304;DHT22;59091;47.446;19.148;2023-02-28T03:26:38;3.61;49.66
71304;DHT22;59091;47.446;19.148;2023-02-28T03:29:15;3.63;49.56
71304;DHT22;59091;47.446;19.148;2023-02-28T03:31:49;3.64;49.65
71304;DHT22;59091;47.446;19.148;2023-02-28T03:36:57;3.54;49.92
71304;DHT22;59091;47.446;19.148;2023-02-28T03:39:31;3.51;50.05
71304;DHT22;59091;47.446;19.148;2023-02-28T03:42:01;3.59;49.96
71304;DHT22;59091;47.446;19.148;2023-02-28T03:47:08;3.39;50.32
71304;DHT22;59091;47.446;19.148;2023-02-28T03:49:42;3.46;50.50
71304;DHT22;59091;47.446;19.148;2023-02-28T03:52:09;3.31;50.49
71304;DHT22;59091;47.446;19.148;2023-02-28T03:54:41;3.44;50.42
71304;DHT22;59091;47.446;19.148;2023-02-28T03:57:54;3.23;50.63
71304;DHT22;59091;47.446;19.148;2023-02-28T03:59:59;3.31;50.90
71304;DHT22;59091;47.446;19.148;2023-02-28T04:02:29;3.41;51.00
71304;DHT22;59091;47.446;19.148;2023-02-28T04:04:55;3.33;50.93
71304;DHT22;59091;47.446;19.148;2023-02-28T04:07:20;3.39;50.84
71304;DHT22;59091;47.446;19.148;2023-02-28T04:09:46;3.37;51.24
71304;DHT22;59091;47.446;19.148;2023-02-28T04:12:11;3.41;51.42
71304;DHT22;59091;47.446;19.148;2023-02-28T04:14:37;3.30;51.29
71304;DHT22;59091;47.446;19.148;2023-02-28T04:17:02;3.31;51.27
71304;DHT22;59091;47.446;19.148;2023-02-28T04:19:28;3.27;51.26
71304;DHT22;59091;47.446;19.148;2023-02-28T04:21:53;3.19;51.77
71304;DHT22;59091;47.446;19.148;2023-02-28T04:24:25;3.27;51.46
71304;DHT22;59091;47.446;19.148;2023-02-28T04:26:54;3.29;51.73
71304;DHT22;59091;47.446;19.148;2023-02-28T04:29:27;3.36;51.07
71304;DHT22;59091;47.446;19.148;2023-02-28T04:31:55;3.29;51.49
71304;DHT22;59091;47.446;19.148;2023-02-28T04:34:25;3.37;51.57
71304;DHT22;59091;47.446;19.148;2023-02-28T04:36:50;3.39;51.28
71304;DHT22;59091;47.446;19.148;2023-02-28T04:39:18;3.49;50.89
71304;DHT22;59091;47.446;19.148;2023-02-28T04:41:45;3.51;50.61
71304;DHT22;59091;47.446;19.148;2023-02-28T04:44:10;3.49;50.48
71304;DHT22;59091;47.446;19.148;2023-02-28T04:46:36;3.54;50.32
71304;DHT22;59091;47.446;19.148;2023-02-28T04:49:02;3.59;50.54
71304;DHT22;59091;47.446;19.148;2023-02-28T04:51:28;3.63;50.47
71304;DHT22;59091;47.446;19.148;2023-02-28T04:53:53;3.66;49.91
71304;DHT22;59091;47.446;19.148;2023-02-28T04:56:19;3.66;49.67
71304;DHT22;59091;47.446;19.148;2023-02-28T04:58:46;3.59;49.84
71304;DHT22;59091;47.446;19.148;2023-02-28T05:01:21;3.57;49.51
71304;DHT22;59091;47.446;19.148;2023-02-28T05:03:47;3.64;49.69
71304;DHT22;59091;47.446;19.148;2023-02-28T05:06:13;3.66;49.51
71304;DHT22;59091;47.446;19.148;2023-02-28T05:08:39;3.57;49.41
71304;DHT22;59091;47.446;19.148;2023-02-28T05:11:08;3.57;49.48
71304;DHT22;59091;47.446;19.148;2023-02-28T05:13:37;3.60;49.45
71304;DHT22;59091;47.446;19.148;2023-02-28T05:16:02;3.67;49.48
71304;DHT22;59091;47.446;19.148;2023-02-28T05:18:28;3.56;48.97
71304;DHT22;59091;47.446;19.148;2023-02-28T05:20:53;3.59;49.00
71304;DHT22;59091;47.446;19.148;2023-02-28T05:23:19;3.57;53.34
71304;DHT22;59091;47.446;19.148;2023-02-28T05:25:45;3.43;49.30
71304;DHT22;59091;47.446;19.148;2023-02-28T05:28:11;3.56;50.36
71304;DHT22;59091;47.446;19.148;2023-02-28T05:30:36;3.49;49.56
71304;DHT22;59091;47.446;19.148;2023-02-28T05:33:02;3.36;49.49
71304;DHT22;59091;47.446;19.148;2023-02-28T05:35:27;3.27;49.89
71304;DHT22;59091;47.446;19.148;2023-02-28T05:37:53;3.31;49.76
71304;DHT22;59091;47.446;19.148;2023-02-28T05:40:19;3.40;49.66
71304;DHT22;59091;47.446;19.148;2023-02-28T05:42:47;3.37;49.43
71304;DHT22;59091;47.446;19.148;2023-02-28T05:45:12;3.43;49.14
71304;DHT22;59091;47.446;19.148;2023-02-28T05:47:38;3.44;50.43
71304;DHT22;59091;47.446;19.148;2023-02-28T05:50:05;3.50;49.46
71304;DHT22;59091;47.446;19.148;2023-02-28T05:52:31;3.39;49.43
71304;DHT22;59091;47.446;19.148;2023-02-28T05:54:57;3.50;49.41
71304;DHT22;59091;47.446;19.148;2023-02-28T05:57:22;3.67;55.12
71304;DHT22;59091;47.446;19.148;2023-02-28T05:59:48;3.66;48.91
71304;DHT22;59091;47.446;19.148;2023-02-28T06:02:15;3.81;58.17
71304;DHT22;59091;47.446;19.148;2023-02-28T06:04:41;3.77;48.94
71304;DHT22;59091;47.446;19.148;2023-02-28T06:07:08;4.04;67.24
71304;DHT22;59091;47.446;19.148;2023-02-28T06:09:34;4.05;50.38
71304;DHT22;59091;47.446;19.148;2023-02-28T06:12:01;4.02;48.42
71304;DHT22;59091;47.446;19.148;2023-02-28T06:14:29;3.91;48.43
71304;DHT22;59091;47.446;19.148;2023-02-28T06:16:56;3.80;48.97
71304;DHT22;59091;47.446;19.148;2023-02-28T06:19:21;3.78;49.21
71304;DHT22;59091;47.446;19.148;2023-02-28T06:21:49;3.64;49.33
71304;DHT22;59091;47.446;19.148;2023-02-28T06:24:17;4.04;55.65
71304;DHT22;59091;47.446;19.148;2023-02-28T06:26:42;3.90;49.29
71304;DHT22;59091;47.446;19.148;2023-02-28T06:29:08;4.12;54.98
71304;DHT22;59091;47.446;19.148;2023-02-28T06:31:33;4.04;48.39
71304;DHT22;59091;47.446;19.148;2023-02-28T06:33:59;3.99;48.28
71304;DHT22;59091;47.446;19.148;2023-02-28T06:36:24;3.82;48.79
71304;DHT22;59091;47.446;19.148;2023-02-28T06:38:50;3.69;49.31
71304;DHT22;59091;47.446;19.148;2023-02-28T06:41:24;3.51;49.30
71304;DHT22;59091;47.446;19.148;2023-02-28T06:43:49;3.73;48.79
71304;DHT22;59091;47.446;19.148;2023-02-28T06:46:15;3.84;48.71
71304;DHT22;59091;47.446;19.148;2023-02-28T06:48:43;3.95;48.43
71304;DHT22;59091;47.446;19.148;2023-02-28T06:51:14;4.06;47.92
71304;DHT22;59091;47.446;19.148;2023-02-28T06:53:40;4.01;48.10
71304;DHT22;59091;47.446;19.148;2023-02-28T06:56:08;4.11;47.73
71304;DHT22;59091;47.446;19.148;2023-02-28T06:58:35;4.09;47.61
71304;DHT22;59091;47.446;19.148;2023-02-28T07:01:01;4.18;46.96
71304;DHT22;59091;47.446;19.148;2023-02-28T07:03:26;4.43;46.86
71304;DHT22;59091;47.446;19.148;2023-02-28T07:05:52;4.19;46.69
71304;DHT22;59091;47.446;19.148;2023-02-28T07:08:17;4.21;47.11
71304;DHT22;59091;47.446;19.148;2023-02-28T07:10:43;4.28;46.89
71304;DHT22;59091;47.446;19.148;2023-02-28T07:13:09;4.36;46.71
71304;DHT22;59091;47.446;19.148;2023-02-28T07:15:37;4.38;46.77
71304;DHT22;59091;47.446;19.148;2023-02-28T07:18:02;4.29;46.92
71304;DHT22;59091;47.446;19.148;2023-02-28T07:20:29;4.45;46.52
71304;DHT22;59091;47.446;19.148;2023-02-28T07:22:54;4.62;46.23
71304;DHT22;59091;47.446;19.148;2023-02-28T07:25:24;4.63;45.83
71304;DHT22;59091;47.446;19.148;2023-02-28T07:27:50;4.70;45.61
71304;DHT22;59091;47.446;19.148;2023-02-28T07:30:15;4.66;45.15
71304;DHT22;59091;47.446;19.148;2023-02-28T07:32:41;4.83;45.37
71304;DHT22;59091;47.446;19.148;2023-02-28T07:35:07;4.90;45.30
71304;DHT22;59091;47.446;19.148;2023-02-28T07:37:32;4.97;45.07
71304;DHT22;59091;47.446;19.148;2023-02-28T07:40:06;4.94;44.88
71304;DHT22;59091;47.446;19.148;2023-02-28T07:42:34;5.05;44.29
71304;DHT22;59091;47.446;19.148;2023-02-28T07:44:59;5.21;44.56
71304;DHT22;59091;47.446;19.148;2023-02-28T07:47:25;5.28;44.15
71304;DHT22;59091;47.446;19.148;2023-02-28T07:49:50;5.39;44.11
71304;DHT22;59091;47.446;19.148;2023-02-28T07:52:15;5.59;43.80
71304;DHT22;59091;47.446;19.148;2023-02-28T07:54:41;5.70;43.74
71304;DHT22;59091;47.446;19.148;2023-02-28T07:57:07;5.65;43.45
71304;DHT22;59091;47.446;19.148;2023-02-28T07:59:33;5.76;43.60
71304;DHT22;59091;47.446;19.148;2023-02-28T08:01:58;5.65;43.06
71304;DHT22;59091;47.446;19.148;2023-02-28T08:04:25;5.82;43.00
71304;DHT22;59091;47.446;19.148;2023-02-28T08:06:50;5.99;42.39
71304;DHT22;59091;47.446;19.148;2023-02-28T08:09:18;5.62;42.54
71304;DHT22;59091;47.446;19.148;2023-02-28T08:11:44;5.54;42.98
71304;DHT22;59091;47.446;19.148;2023-02-28T08:14:09;5.55;42.88
71304;DHT22;59091;47.446;19.148;2023-02-28T08:16:35;5.70;42.68
71304;DHT22;59091;47.446;19.148;2023-02-28T08:19:00;5.76;42.99
71304;DHT22;59091;47.446;19.148;2023-02-28T08:21:27;5.99;42.62
71304;DHT22;59091;47.446;19.148;2023-02-28T08:23:53;5.99;42.67
71304;DHT22;59091;47.446;19.148;2023-02-28T08:26:19;6.31;42.17
71304;DHT22;59091;47.446;19.148;2023-02-28T08:28:45;6.31;41.91
71304;DHT22;59091;47.446;19.148;2023-02-28T08:31:12;6.38;42.07
71304;DHT22;59091;47.446;19.148;2023-02-28T08:33:39;6.47;41.42
71304;DHT22;59091;47.446;19.148;2023-02-28T08:36:05;6.38;41.69
71304;DHT22;59091;47.446;19.148;2023-02-28T08:38:31;6.47;41.81
71304;DHT22;59091;47.446;19.148;2023-02-28T08:40:59;6.24;41.92
71304;DHT22;59091;47.446;19.148;2023-02-28T08:43:25;6.02;42.39
71304;DHT22;59091;47.446;19.148;2023-02-28T08:45:57;6.14;42.57
71304;DHT22;59091;47.446;19.148;2023-02-28T08:48:23;6.11;42.67
71304;DHT22;59091;47.446;19.148;2023-02-28T08:51:03;5.86;42.95
71304;DHT22;59091;47.446;19.148;2023-02-28T08:53:29;5.79;43.14
71304;DHT22;59091;47.446;19.148;2023-02-28T08:56:06;6.06;42.63
71304;DHT22;59091;47.446;19.148;2023-02-28T08:58:32;6.33;42.22
71304;DHT22;59091;47.446;19.148;2023-02-28T09:00:59;6.27;42.26
71304;DHT22;59091;47.446;19.148;2023-02-28T09:03:25;6.51;42.32
71304;DHT22;59091;47.446;19.148;2023-02-28T09:05:56;6.75;41.34
71304;DHT22;59091;47.446;19.148;2023-02-28T09:08:23;6.88;41.49
71304;DHT22;59091;47.446;19.148;2023-02-28T09:10:48;6.82;41.89
71304;DHT22;59091;47.446;19.148;2023-02-28T09:13:14;7.00;41.65
71304;DHT22;59091;47.446;19.148;2023-02-28T09:15:39;7.10;41.77
71304;DHT22;59091;47.446;19.148;2023-02-28T09:18:05;7.24;41.29
71304;DHT22;59091;47.446;19.148;2023-02-28T09:20:30;7.47;40.81
71304;DHT22;59091;47.446;19.148;2023-02-28T09:22:56;7.54;39.97
71304;DHT22;59091;47.446;19.148;2023-02-28T09:25:21;7.71;40.15
71304;DHT22;59091;47.446;19.148;2023-02-28T09:27:46;7.60;40.42
71304;DHT22;59091;47.446;19.148;2023-02-28T09:30:13;7.73;40.35
71304;DHT22;59091;47.446;19.148;2023-02-28T09:32:38;7.50;40.70
71304;DHT22;59091;47.446;19.148;2023-02-28T09:35:04;7.39;40.93
71304;DHT22;59091;47.446;19.148;2023-02-28T09:37:30;6.92;42.13
71304;DHT22;59091;47.446;19.148;2023-02-28T09:39:56;7.18;41.51
71304;DHT22;59091;47.446;19.148;2023-02-28T09:42:30;7.57;40.52
71304;DHT22;59091;47.446;19.148;2023-02-28T09:44:56;7.66;40.23
71304;DHT22;59091;47.446;19.148;2023-02-28T09:47:34;7.69;40.61
71304;DHT22;59091;47.446;19.148;2023-02-28T09:52:53;7.98;39.73
71304;DHT22;59091;47.446;19.148;2023-02-28T09:57:49;8.18;39.38
71304;DHT22;59091;47.446;19.148;2023-02-28T10:00:24;8.16;38.75
71304;DHT22;59091;47.446;19.148;2023-02-28T10:05:41;7.91;40.22
71304;DHT22;59091;47.446;19.148;2023-02-28T10:09:11;7.90;40.33
71304;DHT22;59091;47.446;19.148;2023-02-28T10:11:10;7.95;40.15
71304;DHT22;59091;47.446;19.148;2023-02-28T10:16:08;8.13;39.78
71304;DHT22;59091;47.446;19.148;2023-02-28T10:18:43;8.13;40.42
71304;DHT22;59091;47.446;19.148;2023-02-28T10:21:38;7.80;41.07
71304;DHT22;59091;47.446;19.148;2023-02-28T10:26:47;7.92;41.26
71304;DHT22;59091;47.446;19.148;2023-02-28T10:29:13;7.91;41.36
71304;DHT22;59091;47.446;19.148;2023-02-28T10:31:39;8.08;41.01
71304;DHT22;59091;47.446;19.148;2023-02-28T10:34:05;7.59;41.97
71304;DHT22;59091;47.446;19.148;2023-02-28T10:36:31;7.77;42.07
71304;DHT22;59091;47.446;19.148;2023-02-28T10:38:58;7.92;42.58
71304;DHT22;59091;47.446;19.148;2023-02-28T10:41:32;8.12;42.66
71304;DHT22;59091;47.446;19.148;2023-02-28T10:44:21;8.12;41.30
71304;DHT22;59091;47.446;19.148;2023-02-28T10:46:48;8.35;40.87
71304;DHT22;59091;47.446;19.148;2023-02-28T10:49:26;8.22;40.38
71304;DHT22;59091;47.446;19.148;2023-02-28T10:51:58;8.26;40.51
71304;DHT22;59091;47.446;19.148;2023-02-28T10:54:41;8.21;40.43
71304;DHT22;59091;47.446;19.148;2023-02-28T10:57:19;8.08;40.76
71304;DHT22;59091;47.446;19.148;2023-02-28T10:59:46;8.43;40.59
71304;DHT22;59091;47.446;19.148;2023-02-28T11:02:35;8.83;39.36
71304;DHT22;59091;47.446;19.148;2023-02-28T11:05:02;9.08;39.63
71304;DHT22;59091;47.446;19.148;2023-02-28T11:07:52;9.17;40.28
71304;DHT22;59091;47.446;19.148;2023-02-28T11:10:20;9.04;40.54
71304;DHT22;59091;47.446;19.148;2023-02-28T11:12:46;9.01;41.12
71304;DHT22;59091;47.446;19.148;2023-02-28T11:15:27;9.13;40.54
71304;DHT22;59091;47.446;19.148;2023-02-28T11:18:29;8.88;42.13
71304;DHT22;59091;47.446;19.148;2023-02-28T11:20:57;8.99;40.29
71304;DHT22;59091;47.446;19.148;2023-02-28T11:23:26;8.54;41.29
71304;DHT22;59091;47.446;19.148;2023-02-28T11:25:54;8.84;40.95
71304;DHT22;59091;47.446;19.148;2023-02-28T11:28:31;8.70;40.78
71304;DHT22;59091;47.446;19.148;2023-02-28T11:33:48;8.54;41.49
71304;DHT22;59091;47.446;19.148;2023-02-28T11:38:41;8.72;40.90
71304;DHT22;59091;47.446;19.148;2023-02-28T11:44:04;8.36;41.98
71304;DHT22;59091;47.446;19.148;2023-02-28T11:46:41;8.74;41.74
71304;DHT22;59091;47.446;19.148;2023-02-28T11:52:00;9.10;41.31
71304;DHT22;59091;47.446;19.148;2023-02-28T12:02:42;9.11;41.77
71304;DHT22;59091;47.446;19.148;2023-02-28T12:05:34;9.10;41.64
71304;DHT22;59091;47.446;19.148;2023-02-28T12:08:26;9.07;41.19
71304;DHT22;59091;47.446;19.148;2023-02-28T12:11:16;9.28;40.90
71304;DHT22;59091;47.446;19.148;2023-02-28T12:19:29;9.05;41.49
71304;DHT22;59091;47.446;19.148;2023-02-28T12:28:14;9.10;41.49
71304;DHT22;59091;47.446;19.148;2023-02-28T12:30:54;9.04;42.54
71304;DHT22;59091;47.446;19.148;2023-02-28T12:33:26;9.01;41.85
71304;DHT22;59091;47.446;19.148;2023-02-28T12:35:58;8.99;41.94
71304;DHT22;59091;47.446;19.148;2023-02-28T12:38:45;8.83;42.53
71304;DHT22;59091;47.446;19.148;2023-02-28T12:43:45;9.25;41.25
71304;DHT22;59091;47.446;19.148;2023-02-28T12:46:22;9.15;41.34
71304;DHT22;59091;47.446;19.148;2023-02-28T12:48:54;9.20;42.03
71304;DHT22;59091;47.446;19.148;2023-02-28T12:51:22;9.27;41.42
71304;DHT22;59091;47.446;19.148;2023-02-28T12:59:45;8.73;42.01
71304;DHT22;59091;47.446;19.148;2023-02-28T13:07:49;8.53;42.46
71304;DHT22;59091;47.446;19.148;2023-02-28T13:10:19;8.62;42.60
71304;DHT22;59091;47.446;19.148;2023-02-28T13:12:53;8.62;42.53
71304;DHT22;59091;47.446;19.148;2023-02-28T13:15:27;8.64;42.15
71304;DHT22;59091;47.446;19.148;2023-02-28T13:17:58;8.77;42.32
71304;DHT22;59091;47.446;19.148;2023-02-28T13:20:35;9.01;43.60
71304;DHT22;59091;47.446;19.148;2023-02-28T13:23:01;9.25;42.22
71304;DHT22;59091;47.446;19.148;2023-02-28T13:27:59;8.87;42.05
71304;DHT22;59091;47.446;19.148;2023-02-28T13:33:31;8.63;42.91
71304;DHT22;59091;47.446;19.148;2023-02-28T13:38:49;8.90;42.68
71304;DHT22;59091;47.446;19.148;2023-02-28T13:51:46;8.46;43.43
71304;DHT22;59091;47.446;19.148;2023-02-28T14:00:08;8.85;42.67
71304;DHT22;59091;47.446;19.148;2023-02-28T14:03:22;8.87;42.77
71304;DHT22;59091;47.446;19.148;2023-02-28T14:06:15;8.60;42.55
71304;DHT22;59091;47.446;19.148;2023-02-28T14:11:39;8.93;43.34
71304;DHT22;59091;47.446;19.148;2023-02-28T14:14:07;8.54;43.20
71304;DHT22;59091;47.446;19.148;2023-02-28T14:16:44;8.97;42.73
71304;DHT22;59091;47.446;19.148;2023-02-28T14:32:32;8.93;43.07
71304;DHT22;59091;47.446;19.148;2023-02-28T14:35:12;8.80;43.22
71304;DHT22;59091;47.446;19.148;2023-02-28T14:37:42;8.88;43.43
71304;DHT22;59091;47.446;19.148;2023-02-28T14:40:17;8.77;43.06
71304;DHT22;59091;47.446;19.148;2023-02-28T14:42:58;8.56;43.87
71304;DHT22;59091;47.446;19.148;2023-02-28T14:45:26;8.26;44.85
71304;DHT22;59091;47.446;19.148;2023-02-28T14:47:52;8.29;45.04
71304;DHT22;59091;47.446;19.148;2023-02-28T14:50:20;8.29;45.78
71304;DHT22;59091;47.446;19.148;2023-02-28T14:52:46;8.13;45.92
71304;DHT22;59091;47.446;19.148;2023-02-28T14:55:18;8.24;46.22
71304;DHT22;59091;47.446;19.148;2023-02-28T14:58:29;8.01;46.13
71304;DHT22;59091;47.446;19.148;2023-02-28T15:01:00;7.91;46.77
71304;DHT22;59091;47.446;19.148;2023-02-28T15:03:33;8.13;46.44
71304;DHT22;59091;47.446;19.148;2023-02-28T15:06:01;7.99;47.06
71304;DHT22;59091;47.446;19.148;2023-02-28T15:08:27;7.87;46.73
71304;DHT22;59091;47.446;19.148;2023-02-28T15:13:23;8.01;47.04
71304;DHT22;59091;47.446;19.148;2023-02-28T15:21:23;8.13;47.26
71304;DHT22;59091;47.446;19.148;2023-02-28T15:23:59;8.12;47.07
71304;DHT22;59091;47.446;19.148;2023-02-28T15:26:30;7.99;46.80
71304;DHT22;59091;47.446;19.148;2023-02-28T15:29:04;7.94;46.85
71304;DHT22;59091;47.446;19.148;2023-02-28T15:31:37;7.82;47.08
71304;DHT22;59091;47.446;19.148;2023-02-28T15:34:12;7.91;47.65
71304;DHT22;59091;47.446;19.148;2023-02-28T15:36:40;8.08;46.69
71304;DHT22;59091;47.446;19.148;2023-02-28T15:39:24;7.77;46.83
71304;DHT22;59091;47.446;19.148;2023-02-28T15:41:52;7.92;47.10
71304;DHT22;59091;47.446;19.148;2023-02-28T15:46:59;7.74;47.53
71304;DHT22;59091;47.446;19.148;2023-02-28T15:49:27;7.54;48.40
71304;DHT22;59091;47.446;19.148;2023-02-28T15:51:56;7.64;47.86
71304;DHT22;59091;47.446;19.148;2023-02-28T15:54:27;7.90;55.51
71304;DHT22;59091;47.446;19.148;2023-02-28T15:56:55;8.36;49.64
71304;DHT22;59091;47.446;19.148;2023-02-28T15:59:23;7.81;48.07
71304;DHT22;59091;47.446;19.148;2023-02-28T16:04:35;7.22;49.48
71304;DHT22;59091;47.446;19.148;2023-02-28T16:07:02;7.26;49.81
71304;DHT22;59091;47.446;19.148;2023-02-28T16:09:28;7.40;49.35
71304;DHT22;59091;47.446;19.148;2023-02-28T16:11:58;7.40;49.60
71304;DHT22;59091;47.446;19.148;2023-02-28T16:14:26;7.42;55.18
71304;DHT22;59091;47.446;19.148;2023-02-28T16:17:02;7.26;51.13
71304;DHT22;59091;47.446;19.148;2023-02-28T16:19:27;7.12;50.98
71304;DHT22;59091;47.446;19.148;2023-02-28T16:21:53;7.12;51.06
71304;DHT22;59091;47.446;19.148;2023-02-28T16:24:18;7.03;51.19
71304;DHT22;59091;47.446;19.148;2023-02-28T16:26:46;7.31;53.70
71304;DHT22;59091;47.446;19.148;2023-02-28T16:29:30;7.26;50.98
71304;DHT22;59091;47.446;19.148;2023-02-28T16:31:57;7.24;51.17
71304;DHT22;59091;47.446;19.148;2023-02-28T16:34:24;7.30;52.42
71304;DHT22;59091;47.446;19.148;2023-02-28T16:36:50;7.24;51.25
71304;DHT22;59091;47.446;19.148;2023-02-28T16:39:15;7.34;51.15
71304;DHT22;59091;47.446;19.148;2023-02-28T16:41:43;7.34;51.45
71304;DHT22;59091;47.446;19.148;2023-02-28T16:44:13;7.34;52.34
71304;DHT22;59091;47.446;19.148;2023-02-28T16:46:39;7.29;52.16
71304;DHT22;59091;47.446;19.148;2023-02-28T16:49:10;7.30;51.71
71304;DHT22;59091;47.446;19.148;2023-02-28T16:51:36;7.31;52.31
71304;DHT22;59091;47.446;19.148;2023-02-28T16:54:01;7.36;52.20
71304;DHT22;59091;47.446;19.148;2023-02-28T16:56:27;7.34;52.30
71304;DHT22;59091;47.446;19.148;2023-02-28T16:58:57;7.44;51.66
71304;DHT22;59091;47.446;19.148;2023-02-28T17:01:24;7.49;51.77
71304;DHT22;59091;47.446;19.148;2023-02-28T17:03:50;7.53;51.56
71304;DHT22;59091;47.446;19.148;2023-02-28T17:06:19;7.51;51.43
71304;DHT22;59091;47.446;19.148;2023-02-28T17:08:45;7.47;51.57
71304;DHT22;59091;47.446;19.148;2023-02-28T17:11:10;7.34;52.05
71304;DHT22;59091;47.446;19.148;2023-02-28T17:13:35;7.29;52.34
71304;DHT22;59091;47.446;19.148;2023-02-28T17:16:01;7.26;52.73
71304;DHT22;59091;47.446;19.148;2023-02-28T17:18:27;7.33;52.47
71304;DHT22;59091;47.446;19.148;2023-02-28T17:20:59;7.26;52.97
71304;DHT22;59091;47.446;19.148;2023-02-28T17:23:24;7.27;52.90
71304;DHT22;59091;47.446;19.148;2023-02-28T17:25:50;7.22;53.13
71304;DHT22;59091;47.446;19.148;2023-02-28T17:28:19;7.13;53.10
71304;DHT22;59091;47.446;19.148;2023-02-28T17:30:46;7.19;53.02
71304;DHT22;59091;47.446;19.148;2023-02-28T17:33:12;7.27;53.00
71304;DHT22;59091;47.446;19.148;2023-02-28T17:35:38;7.27;53.39
71304;DHT22;59091;47.446;19.148;2023-02-28T17:38:03;7.30;52.88
71304;DHT22;59091;47.446;19.148;2023-02-28T17:40:29;7.23;52.79
71304;DHT22;59091;47.446;19.148;2023-02-28T17:42:55;7.31;52.52
71304;DHT22;59091;47.446;19.148;2023-02-28T17:45:22;7.34;52.85
71304;DHT22;59091;47.446;19.148;2023-02-28T17:47:48;7.36;53.00
71304;DHT22;59091;47.446;19.148;2023-02-28T17:50:20;7.42;52.76
71304;DHT22;59091;47.446;19.148;2023-02-28T17:52:47;7.47;52.63
71304;DHT22;59091;47.446;19.148;2023-02-28T17:55:13;7.39;52.58
71304;DHT22;59091;47.446;19.148;2023-02-28T17:57:39;7.39;52.60
71304;DHT22;59091;47.446;19.148;2023-02-28T18:00:07;7.33;52.90
71304;DHT22;59091;47.446;19.148;2023-02-28T18:02:33;7.34;52.57
71304;DHT22;59091;47.446;19.148;2023-02-28T18:04:59;7.29;52.56